Guadalupe Mountains Natl Park, Texas
Current Conditions -  °F | °C
As of 6:51 AM on Monday 24 Nov 2014 (Local Time) from KGDP Reporting Station
Clear Clear  
Wind Chill: 21°   Ceiling: Unl
Heat Index: 32°   Visibility: 10mi
Dew Point:   Wind: 17mph
Humidity: 35%   Direction: 250°WSW
Pressure: 30.08"   Gusts: NA
Location:  31.92°N, 104.92°W
Report Text: KGDP 241251Z AUTO 25015KT 10SM CLR 00/M14 A3008 RMK AO2 SLP174 T00001139
Loading
Personal Weather Stations






























Interactive Weather Map New forecast layout! Learn more

10-Day Weather Forecast

Advertisements
Track Severe Weather on mobile